Time;durP1;ratioP1;P1;durP2;ratioP2;P2;SDS_P1;SDS_P2;PMS_P1;PMS_P2;Temp;Humidity;BMP_temperature;BMP_pressure;BME280_temperature;BME280_humidity;BME280_pressure;Samples;Min_cycle;Max_cycle;Signal;HPM_P1;HPM_P2
2022/05/12 00:00:21;;;;;;;2.83;1.83;;;20.90;68.40;;;;;;4851318;29;20469;-87
2022/05/12 00:02:48;;;;;;;2.13;1.50;;;20.80;69.40;;;;;;4853095;29;20836;-85
2022/05/12 00:05:15;;;;;;;3.90;2.20;;;20.70;70.50;;;;;;4853255;29;20560;-85
2022/05/12 00:07:52;;;;;;;4.03;1.63;;;20.70;71.20;;;;;;4868507;29;20481;-87
2022/05/12 00:10:22;;;;;;;7.30;2.10;;;20.80;71.30;;;;;;4852671;29;20465;-82
2022/05/12 00:12:50;;;;;;;2.83;1.83;;;20.70;72.50;;;;;;4852616;29;20465;-85
2022/05/12 00:15:23;;;;;;;3.70;2.20;;;20.70;73.40;;;;;;4848741;29;20492;-86
2022/05/12 00:17:49;;;;;;;4.00;1.63;;;20.70;74.00;;;;;;4850789;29;20554;-85
2022/05/12 00:20:20;;;;;;;3.93;2.30;;;20.70;75.00;;;;;;4855128;29;20841;-85
2022/05/12 00:22:47;;;;;;;4.20;2.17;;;20.60;76.10;;;;;;4850860;29;21066;-85
2022/05/12 00:25:18;;;;;;;4.00;2.10;;;20.60;77.20;;;;;;4851271;29;20496;-85
2022/05/12 00:27:44;;;;;;;5.10;1.90;;;20.50;78.30;;;;;;4851824;29;21120;-87
2022/05/12 00:30:13;;;;;;;4.97;2.20;;;20.50;78.80;;;;;;4850102;29;20469;-82
2022/05/12 00:32:43;;;;;;;4.50;1.90;;;20.50;79.20;;;;;;4847896;29;20481;-83
2022/05/12 00:35:12;;;;;;;2.30;1.73;;;20.50;80.30;;;;;;4860023;29;20477;-83
2022/05/12 00:37:38;;;;;;;2.93;1.47;;;20.40;80.40;;;;;;4854637;29;20553;-86
2022/05/12 00:40:06;;;;;;;2.30;1.90;;;20.30;80.80;;;;;;4850376;29;20541;-84
2022/05/12 00:42:33;;;;;;;3.97;1.57;;;20.40;81.20;;;;;;4852153;29;20508;-84
2022/05/12 00:45:00;;;;;;;5.37;1.73;;;20.30;81.40;;;;;;4865583;29;20493;-83
2022/05/12 00:47:27;;;;;;;3.87;1.97;;;20.20;81.80;;;;;;4866246;29;20485;-85
2022/05/12 00:49:54;;;;;;;1.70;1.20;;;20.20;82.40;;;;;;4851456;29;20461;-85
2022/05/12 00:52:26;;;;;;;4.40;1.60;;;20.10;82.70;;;;;;4855234;29;20572;-85
2022/05/12 00:55:04;;;;;;;3.57;1.83;;;20.00;83.40;;;;;;4861328;29;20493;-85
2022/05/12 00:57:35;;;;;;;4.00;1.30;;;19.90;84.00;;;;;;4846432;29;20998;-83
2022/05/12 01:00:05;;;;;;;2.70;1.60;;;19.80;84.80;;;;;;4863292;29;20584;-82
2022/05/12 01:02:36;;;;;;;3.17;1.37;;;19.70;85.50;;;;;;4849842;29;20563;-83
2022/05/12 01:05:04;;;;;;;3.13;1.60;;;19.70;85.80;;;;;;4846607;29;20493;-84
2022/05/12 01:07:32;;;;;;;2.23;1.40;;;19.80;85.60;;;;;;4850302;29;20608;-82
2022/05/12 01:10:00;;;;;;;3.93;1.60;;;19.70;85.90;;;;;;4849958;29;20544;-83
2022/05/12 01:12:28;;;;;;;3.13;1.27;;;19.60;86.60;;;;;;4849096;29;20461;-83
2022/05/12 01:14:54;;;;;;;3.73;1.70;;;19.60;87.10;;;;;;4848923;29;20481;-86
2022/05/12 01:17:23;;;;;;;1.90;1.40;;;19.50;87.30;;;;;;4847556;29;20473;-85
2022/05/12 01:19:51;;;;;;;4.50;2.03;;;19.50;87.90;;;;;;4847971;29;20477;-87
2022/05/12 01:22:47;;;;;;;2.43;1.50;;;19.50;87.90;;;;;;4852059;29;21271;-84
2022/05/12 01:25:20;;;;;;;7.37;1.83;;;19.50;88.60;;;;;;4850039;29;20508;-84
2022/05/12 01:27:47;;;;;;;4.70;1.80;;;19.50;88.90;;;;;;4851850;29;20987;-85
2022/05/12 01:30:16;;;;;;;2.10;1.37;;;19.50;89.20;;;;;;4849573;29;20469;-83
2022/05/12 01:32:49;;;;;;;7.60;1.90;;;19.50;89.60;;;;;;4851656;29;20493;-84
2022/05/12 01:35:22;;;;;;;3.73;2.07;;;19.40;90.00;;;;;;4854772;29;20527;-85
2022/05/12 01:37:49;;;;;;;5.70;2.07;;;19.50;90.00;;;;;;4847925;29;20565;-86
2022/05/12 01:40:20;;;;;;;2.33;2.00;;;19.50;90.00;;;;;;4862967;29;20465;-85
2022/05/12 01:42:48;;;;;;;1.80;1.70;;;19.50;90.20;;;;;;4850659;29;20485;-84
2022/05/12 01:45:16;;;;;;;1.97;1.87;;;19.60;90.20;;;;;;4851352;29;20569;-87
2022/05/12 01:47:44;;;;;;;5.03;2.80;;;19.50;90.30;;;;;;4851175;29;20494;-84
2022/05/12 01:50:13;;;;;;;3.60;3.00;;;19.40;90.10;;;;;;4853461;29;20465;-86
2022/05/12 01:52:43;;;;;;;7.40;2.60;;;19.30;90.70;;;;;;4863009;29;20457;-84
2022/05/12 01:55:13;;;;;;;3.47;2.50;;;19.20;91.00;;;;;;4882718;29;20493;-85
2022/05/12 01:57:43;;;;;;;3.10;2.17;;;19.10;91.30;;;;;;4867636;29;20466;-86
2022/05/12 02:00:14;;;;;;;5.93;2.60;;;19.20;91.30;;;;;;4867109;29;20465;-84
2022/05/12 02:02:41;;;;;;;2.73;2.47;;;19.20;91.20;;;;;;4866104;29;21851;-83
2022/05/12 02:05:10;;;;;;;2.93;2.63;;;19.10;91.20;;;;;;4847533;29;20492;-83
2022/05/12 02:07:39;;;;;;;3.90;3.37;;;19.00;90.80;;;;;;4854211;29;20511;-82
2022/05/12 02:10:08;;;;;;;5.03;2.33;;;18.80;90.70;;;;;;4854131;29;20488;-85
2022/05/12 02:12:35;;;;;;;4.23;2.93;;;18.80;90.50;;;;;;4859355;29;20468;-84
2022/05/12 02:15:07;;;;;;;5.50;2.60;;;18.80;90.10;;;;;;4857133;29;20859;-84
2022/05/12 02:17:34;;;;;;;3.30;2.60;;;18.80;90.00;;;;;;4872454;29;20463;-84
2022/05/12 02:20:01;;;;;;;3.30;2.50;;;18.90;90.00;;;;;;4859352;29;20469;-83
2022/05/12 02:22:28;;;;;;;4.73;3.00;;;18.90;90.00;;;;;;4856454;29;20875;-82
2022/05/12 02:24:54;;;;;;;3.20;3.00;;;18.90;89.80;;;;;;4857360;29;20461;-87
2022/05/12 02:27:21;;;;;;;5.10;2.73;;;18.80;90.20;;;;;;4851746;29;20496;-86
2022/05/12 02:29:48;;;;;;;6.20;3.00;;;18.70;90.50;;;;;;4859311;29;20461;-82
2022/05/12 02:32:14;;;;;;;5.40;3.60;;;18.60;90.60;;;;;;4871076;29;20469;-84
2022/05/12 02:34:41;;;;;;;3.57;2.93;;;18.60;90.70;;;;;;4871683;29;20484;-83
2022/05/12 02:37:08;;;;;;;4.60;3.33;;;18.50;90.80;;;;;;4888284;29;20466;-82
2022/05/12 02:39:38;;;;;;;4.20;3.00;;;18.60;90.90;;;;;;4887941;29;20493;-88
2022/05/12 02:42:06;;;;;;;5.60;3.40;;;18.60;91.10;;;;;;4876387;29;20460;-87
2022/05/12 02:44:33;;;;;;;4.90;3.20;;;18.50;90.60;;;;;;4883061;29;20593;-82
2022/05/12 02:47:00;;;;;;;3.50;3.17;;;18.50;90.70;;;;;;4878569;29;20477;-81
2022/05/12 02:49:28;;;;;;;4.80;3.40;;;18.40;90.70;;;;;;4884948;29;20471;-82
2022/05/12 02:51:54;;;;;;;3.60;3.30;;;18.30;90.70;;;;;;4873560;29;20453;-82
2022/05/12 02:54:23;;;;;;;3.77;3.13;;;18.40;90.60;;;;;;4863802;29;20943;-83
2022/05/12 02:56:52;;;;;;;6.90;3.43;;;18.30;90.70;;;;;;4874635;29;20472;-82
2022/05/12 02:59:19;;;;;;;5.47;3.70;;;18.30;90.80;;;;;;4877438;29;20487;-83
2022/05/12 03:01:45;;;;;;;3.77;3.23;;;18.20;90.70;;;;;;4863542;29;20454;-81
2022/05/12 03:04:12;;;;;;;8.80;3.73;;;18.10;90.90;;;;;;4860886;29;20581;-84
2022/05/12 03:06:42;;;;;;;4.97;3.47;;;18.00;91.10;;;;;;4863588;29;20458;-83
2022/05/12 03:09:09;;;;;;;5.03;3.57;;;18.00;91.40;;;;;;4857873;29;20463;-83
2022/05/12 03:11:39;;;;;;;5.90;3.60;;;17.90;91.50;;;;;;4873231;29;20452;-82
2022/05/12 03:14:06;;;;;;;5.30;4.53;;;17.90;91.70;;;;;;4862514;29;20497;-80
2022/05/12 03:16:36;;;;;;;4.90;4.17;;;17.80;91.70;;;;;;4862865;29;20457;-84
2022/05/12 03:19:06;;;;;;;6.00;3.87;;;17.80;91.90;;;;;;4863257;29;20486;-85
2022/05/12 03:21:33;;;;;;;4.13;3.53;;;17.70;92.00;;;;;;4860077;29;20476;-85
2022/05/12 03:24:00;;;;;;;4.67;3.80;;;17.60;92.30;;;;;;4862994;29;20484;-83
2022/05/12 03:26:27;;;;;;;4.90;4.50;;;17.60;92.40;;;;;;4860997;29;20478;-83
2022/05/12 03:28:56;;;;;;;4.53;4.07;;;17.60;92.50;;;;;;4864196;29;20964;-82
2022/05/12 03:31:22;;;;;;;7.10;4.03;;;17.70;92.50;;;;;;4858941;29;20469;-84
2022/05/12 03:33:49;;;;;;;7.23;3.70;;;17.60;92.50;;;;;;4864239;29;20492;-83
2022/05/12 03:36:16;;;;;;;7.53;4.60;;;17.70;92.60;;;;;;4863346;29;20477;-84
2022/05/12 03:38:43;;;;;;;5.10;4.43;;;17.70;92.60;;;;;;4862632;29;20820;-83
2022/05/12 03:41:10;;;;;;;5.47;3.60;;;17.80;92.50;;;;;;4859972;29;20471;-84
2022/05/12 03:46:27;;;;;;;4.90;4.10;;;17.70;92.40;;;;;;4856317;29;20473;-84
2022/05/12 03:48:53;;;;;;;5.20;3.80;;;17.60;92.50;;;;;;4861984;29;20489;-82
2022/05/12 03:51:20;;;;;;;5.23;3.57;;;17.60;92.50;;;;;;4860735;29;20465;-85
2022/05/12 03:53:47;;;;;;;4.97;3.50;;;17.60;92.10;;;;;;4860807;29;20504;-84
2022/05/12 03:56:16;;;;;;;3.80;3.43;;;17.50;92.00;;;;;;4860776;29;20466;-83
2022/05/12 03:58:43;;;;;;;6.93;3.57;;;17.50;92.10;;;;;;4861668;29;20457;-83
2022/05/12 04:01:11;;;;;;;4.63;3.10;;;17.40;92.20;;;;;;4863443;29;20838;-85
2022/05/12 04:03:38;;;;;;;4.23;3.27;;;17.40;92.40;;;;;;4866274;29;20473;-84
2022/05/12 04:06:06;;;;;;;4.57;3.50;;;17.50;92.10;;;;;;4866253;29;20477;-83
2022/05/12 04:08:34;;;;;;;7.20;3.67;;;17.70;91.60;;;;;;4877000;29;20490;-82
2022/05/12 04:11:01;;;;;;;6.50;3.47;;;17.60;91.40;;;;;;4862662;29;20469;-83
2022/05/12 04:13:28;;;;;;;3.63;3.33;;;17.60;91.10;;;;;;4863195;29;20465;-83
2022/05/12 04:15:54;;;;;;;7.07;3.47;;;17.60;90.80;;;;;;4861217;29;20470;-85
2022/05/12 04:18:21;;;;;;;4.77;3.60;;;17.50;90.80;;;;;;4863583;29;20472;-81
2022/05/12 04:20:48;;;;;;;5.13;2.90;;;17.50;90.90;;;;;;4868627;29;20467;-82
2022/05/12 04:23:14;;;;;;;3.73;3.40;;;17.40;91.00;;;;;;4865602;29;20497;-86
2022/05/12 04:25:41;;;;;;;4.30;3.40;;;17.50;90.80;;;;;;4862144;29;20461;-84
2022/05/12 04:28:08;;;;;;;4.40;4.00;;;17.50;90.80;;;;;;4861106;29;20484;-83
2022/05/12 04:30:36;;;;;;;6.23;3.43;;;17.50;90.70;;;;;;4862993;29;20466;-84
2022/05/12 04:35:49;;;;;;;5.60;3.27;;;17.30;90.90;;;;;;4861187;29;20474;-84
2022/05/12 04:38:16;;;;;;;4.73;2.90;;;17.30;91.00;;;;;;4864595;29;20517;-87
2022/05/12 04:40:43;;;;;;;5.70;3.40;;;17.30;91.00;;;;;;4864357;29;20473;-82
2022/05/12 04:43:09;;;;;;;6.40;3.50;;;17.30;90.90;;;;;;4879437;29;20556;-83
2022/05/12 04:45:36;;;;;;;4.83;3.57;;;17.20;90.90;;;;;;4882638;29;20465;-83
2022/05/12 04:48:04;;;;;;;7.63;3.80;;;17.20;91.40;;;;;;4880411;29;20548;-82
2022/05/12 04:50:34;;;;;;;4.50;3.90;;;17.20;91.60;;;;;;4864954;29;20541;-83
2022/05/12 04:53:02;;;;;;;5.73;4.40;;;17.20;91.70;;;;;;4865241;29;20449;-82
2022/05/12 04:55:29;;;;;;;6.30;5.50;;;17.20;91.70;;;;;;4881897;29;20486;-82
2022/05/12 04:57:57;;;;;;;7.80;4.20;;;17.20;91.90;;;;;;4877414;29;20464;-82
2022/05/12 05:00:27;;;;;;;6.70;3.97;;;17.30;91.80;;;;;;4880296;29;20457;-84
2022/05/12 05:02:55;;;;;;;9.20;4.53;;;17.20;91.70;;;;;;4880177;29;20450;-84
2022/05/12 05:05:22;;;;;;;5.53;3.50;;;17.20;92.00;;;;;;4885186;29;20521;-82
2022/05/12 05:07:49;;;;;;;5.40;4.00;;;17.20;92.30;;;;;;4884655;29;20526;-83
2022/05/12 05:10:16;;;;;;;5.40;4.57;;;17.20;91.50;;;;;;4899709;29;20449;-85
2022/05/12 05:12:43;;;;;;;4.83;3.50;;;17.30;91.30;;;;;;4884028;29;20464;-86
2022/05/12 05:15:12;;;;;;;3.90;3.33;;;17.30;90.90;;;;;;4880414;29;20501;-84
2022/05/12 05:17:40;;;;;;;4.67;3.37;;;17.20;90.60;;;;;;4881761;29;20464;-84
2022/05/12 05:20:10;;;;;;;6.10;3.50;;;17.20;90.60;;;;;;4878002;29;20473;-86
2022/05/12 05:22:37;;;;;;;3.80;3.33;;;17.10;90.60;;;;;;4896762;29;20469;-89
2022/05/12 05:25:05;;;;;;;6.80;3.53;;;17.10;90.80;;;;;;4881891;29;20500;-88
2022/05/12 05:27:32;;;;;;;5.97;3.40;;;17.00;91.10;;;;;;4880158;29;20572;-88
2022/05/12 05:29:59;;;;;;;6.00;3.83;;;17.10;91.10;;;;;;4871350;29;20875;-83
2022/05/12 05:32:27;;;;;;;6.10;3.43;;;17.20;90.90;;;;;;4867185;29;20896;-82
2022/05/12 05:34:54;;;;;;;9.17;4.23;;;17.20;90.80;;;;;;4864096;29;20492;-84
2022/05/12 05:37:21;;;;;;;7.73;3.70;;;17.20;90.80;;;;;;4882687;29;20750;-83
2022/05/12 05:39:48;;;;;;;7.97;4.00;;;17.20;91.00;;;;;;4866938;29;20513;-85
2022/05/12 05:42:17;;;;;;;3.90;3.40;;;17.20;90.90;;;;;;4873618;29;20461;-82
2022/05/12 05:44:43;;;;;;;6.77;4.20;;;17.20;90.60;;;;;;4877020;29;20480;-84
2022/05/12 05:47:10;;;;;;;7.80;3.67;;;17.20;90.50;;;;;;4889234;29;20462;-85
2022/05/12 05:49:37;;;;;;;8.10;3.97;;;17.20;90.60;;;;;;4887898;29;20549;-82
2022/05/12 05:54:51;;;;;;;6.67;3.63;;;17.30;90.40;;;;;;4873967;29;20561;-85
2022/05/12 05:57:23;;;;;;;5.00;3.00;;;17.40;89.60;;;;;;4864492;29;20510;-87
2022/05/12 05:59:52;;;;;;;4.07;3.30;;;17.50;88.00;;;;;;4857395;29;20461;-82
2022/05/12 06:02:19;;;;;;;5.63;2.63;;;17.50;87.40;;;;;;4873284;29;20472;-85
2022/05/12 06:04:46;;;;;;;7.73;3.53;;;17.60;86.80;;;;;;4872801;29;20473;-86
2022/05/12 06:07:13;;;;;;;7.00;3.47;;;17.70;85.60;;;;;;4873190;29;20478;-85
2022/05/12 06:09:41;;;;;;;5.30;2.73;;;17.80;84.80;;;;;;4867535;29;20668;-82
2022/05/12 06:12:11;;;;;;;4.27;2.70;;;17.70;84.10;;;;;;4867729;29;20458;-84
2022/05/12 06:14:38;;;;;;;5.17;2.77;;;17.70;84.30;;;;;;4867437;29;20480;-83
2022/05/12 06:17:05;;;;;;;6.20;2.63;;;17.80;83.30;;;;;;4880036;29;20955;-85
2022/05/12 06:19:32;;;;;;;3.40;2.47;;;17.80;82.70;;;;;;4864800;29;20500;-85
2022/05/12 06:22:00;;;;;;;4.83;2.33;;;17.80;82.10;;;;;;4860406;29;20468;-85
2022/05/12 06:24:27;;;;;;;3.23;2.40;;;17.90;82.40;;;;;;4869181;29;20556;-83
2022/05/12 06:26:54;;;;;;;3.10;1.90;;;18.00;81.20;;;;;;4860155;29;21406;-81
2022/05/12 06:29:20;;;;;;;4.30;2.57;;;18.00;80.10;;;;;;4863720;29;20489;-82
2022/05/12 06:31:47;;;;;;;8.50;2.30;;;18.10;80.40;;;;;;4860955;29;20467;-80
2022/05/12 06:34:15;;;;;;;6.07;2.10;;;18.30;79.80;;;;;;4858118;29;20481;-81
2022/05/12 06:36:43;;;;;;;3.70;2.00;;;18.70;77.70;;;;;;4852617;29;20517;-82
2022/05/12 06:39:10;;;;;;;3.03;1.77;;;18.70;76.00;;;;;;4862921;29;20480;-82
2022/05/12 06:41:37;;;;;;;5.13;2.37;;;18.70;75.70;;;;;;4870409;29;20465;-82
2022/05/12 06:44:05;;;;;;;2.20;2.00;;;18.60;76.10;;;;;;4867132;29;20488;-80
2022/05/12 06:46:32;;;;;;;4.57;1.67;;;19.00;75.20;;;;;;4864256;29;20458;-81
2022/05/12 06:49:02;;;;;;;4.20;1.90;;;18.90;74.90;;;;;;4863931;29;20509;-82
2022/05/12 06:51:28;;;;;;;6.47;1.90;;;18.90;74.60;;;;;;4875639;29;20465;-83
2022/05/12 06:53:55;;;;;;;4.30;2.10;;;18.80;73.70;;;;;;4891111;29;20493;-81
2022/05/12 06:56:22;;;;;;;3.50;2.00;;;18.80;73.80;;;;;;4857671;29;20485;-83
2022/05/12 06:58:49;;;;;;;6.23;2.00;;;18.80;73.10;;;;;;4860247;29;20465;-80
2022/05/12 07:01:15;;;;;;;2.17;1.70;;;18.70;72.20;;;;;;4873080;29;20472;-82
2022/05/12 07:03:42;;;;;;;3.40;1.80;;;18.50;72.00;;;;;;4860740;29;21694;-80
2022/05/12 07:06:09;;;;;;;3.10;2.13;;;18.50;72.40;;;;;;4896411;29;20465;-81
2022/05/12 07:08:43;;;;;;;4.40;1.70;;;18.70;71.90;;;;;;4859496;29;20497;-83
2022/05/12 07:11:10;;;;;;;3.13;2.00;;;18.70;71.60;;;;;;4874331;29;20457;-82
2022/05/12 07:13:37;;;;;;;3.87;1.83;;;18.80;71.20;;;;;;4864886;29;20839;-83
2022/05/12 07:16:06;;;;;;;2.87;2.00;;;18.90;71.00;;;;;;4863014;29;20838;-82
2022/05/12 07:18:34;;;;;;;2.20;1.70;;;19.00;70.60;;;;;;4863538;29;20453;-82
2022/05/12 07:26:49;;;;;;;4.30;2.60;;;19.30;69.60;;;;;;4861722;29;20469;-83
2022/05/12 07:29:18;;;;;;;3.60;2.10;;;19.40;69.40;;;;;;4862597;29;20499;-83
2022/05/12 07:31:47;;;;;;;3.03;2.30;;;19.70;69.40;;;;;;4866378;29;20492;-83
2022/05/12 07:34:14;;;;;;;4.80;2.37;;;19.90;67.80;;;;;;4878637;29;21025;-83
2022/05/12 07:36:44;;;;;;;2.83;2.53;;;19.90;67.10;;;;;;4868951;29;20488;-83
2022/05/12 07:39:14;;;;;;;3.17;2.07;;;19.80;68.20;;;;;;4892185;29;20595;-84
2022/05/12 07:41:41;;;;;;;3.40;2.60;;;19.80;67.30;;;;;;4862822;29;20477;-83
2022/05/12 07:44:09;;;;;;;4.87;2.57;;;19.90;67.60;;;;;;4865303;29;20560;-82
2022/05/12 07:46:37;;;;;;;4.27;2.37;;;20.00;67.50;;;;;;4860928;29;20461;-83
2022/05/12 07:49:04;;;;;;;4.33;2.70;;;19.90;68.00;;;;;;4867069;29;20484;-82
2022/05/12 07:51:30;;;;;;;3.43;2.50;;;21.10;65.40;;;;;;4863161;29;20466;-83
2022/05/12 07:53:57;;;;;;;4.50;2.83;;;21.20;63.40;;;;;;4862917;29;20557;-82
2022/05/12 07:56:26;;;;;;;6.80;3.10;;;20.60;64.80;;;;;;4848972;29;20469;-81
2022/05/12 07:58:56;;;;;;;8.17;3.37;;;20.40;65.80;;;;;;4850377;29;20478;-80
2022/05/12 08:01:25;;;;;;;7.80;3.20;;;20.30;65.70;;;;;;4848756;29;21062;-81
2022/05/12 08:03:52;;;;;;;4.73;2.80;;;20.20;65.70;;;;;;4880710;29;20913;-81
2022/05/12 08:06:20;;;;;;;4.73;3.87;;;20.40;65.50;;;;;;4850090;29;20465;-83
2022/05/12 08:08:48;;;;;;;5.60;3.80;;;20.50;65.50;;;;;;4861227;29;21036;-81
2022/05/12 08:11:15;;;;;;;4.50;3.97;;;20.30;66.10;;;;;;4849801;29;20457;-81
2022/05/12 08:13:47;;;;;;;8.43;4.10;;;20.90;65.80;;;;;;4847564;29;20481;-83
2022/05/12 08:16:17;;;;;;;4.83;3.00;;;21.60;63.00;;;;;;4869403;29;20458;-81
2022/05/12 08:18:46;;;;;;;5.17;3.43;;;21.90;61.30;;;;;;4849160;29;20521;-82
2022/05/12 08:21:14;;;;;;;5.70;3.83;;;21.50;61.10;;;;;;4848585;29;20465;-81
2022/05/12 08:23:41;;;;;;;4.33;3.33;;;22.60;59.80;;;;;;4851281;29;20489;-81
2022/05/12 08:26:10;;;;;;;3.33;3.03;;;22.70;57.60;;;;;;4850590;29;20530;-80
2022/05/12 08:28:37;;;;;;;4.40;3.83;;;22.50;57.70;;;;;;4847919;29;20652;-82
2022/05/12 08:31:04;;;;;;;4.50;3.83;;;22.60;58.30;;;;;;4849174;29;20947;-81
2022/05/12 08:33:36;;;;;;;6.53;4.23;;;23.50;57.60;;;;;;4862260;29;20480;-84
2022/05/12 08:36:04;;;;;;;4.30;3.90;;;25.70;53.90;;;;;;4849558;29;20491;-80
2022/05/12 08:38:31;;;;;;;6.43;4.80;;;26.70;50.70;;;;;;4848639;29;20465;-81
2022/05/12 08:41:04;;;;;;;5.60;5.03;;;27.40;47.90;;;;;;4848465;29;20493;-82
2022/05/12 08:43:48;;;;;;;5.30;4.87;;;26.70;48.70;;;;;;4848795;29;20553;-82
2022/05/12 08:46:26;;;;;;;5.20;4.80;;;25.90;49.00;;;;;;4851186;29;20461;-82
2022/05/12 08:49:04;;;;;;;5.10;4.60;;;24.10;51.40;;;;;;4849218;29;20477;-82
2022/05/12 08:51:35;;;;;;;8.43;5.20;;;23.30;53.80;;;;;;4863792;29;21035;-82
2022/05/12 08:54:12;;;;;;;6.87;5.53;;;22.70;54.90;;;;;;4849731;29;20486;-80
2022/05/12 08:56:39;;;;;;;5.50;5.00;;;21.90;56.50;;;;;;4849489;29;20480;-81
2022/05/12 08:59:06;;;;;;;4.87;4.47;;;22.40;57.60;;;;;;4848828;29;20475;-82
2022/05/12 09:01:45;;;;;;;6.37;4.77;;;23.70;55.00;;;;;;4850089;29;20473;-82
2022/05/12 09:04:48;;;;;;;5.27;4.77;;;24.60;52.40;;;;;;4847988;29;20560;-81
2022/05/12 09:07:34;;;;;;;4.30;3.70;;;24.70;51.00;;;;;;4861933;29;20469;-83
2022/05/12 09:10:33;;;;;;;5.73;4.00;;;24.80;50.40;;;;;;4851456;29;20481;-83
2022/05/12 09:13:12;;;;;;;8.33;3.50;;;25.60;49.80;;;;;;4852022;29;20830;-80
2022/05/12 09:15:50;;;;;;;3.67;3.20;;;26.10;48.50;;;;;;4848595;29;20557;-80
2022/05/12 09:18:27;;;;;;;5.70;3.27;;;28.20;44.60;;;;;;4849175;29;22590;-81
2022/05/12 09:20:58;;;;;;;5.13;3.00;;;28.40;43.60;;;;;;4860721;29;20552;-81
2022/05/12 09:23:25;;;;;;;4.30;2.50;;;27.80;42.70;;;;;;4864044;29;20501;-82
2022/05/12 09:25:52;;;;;;;4.03;2.50;;;27.30;42.20;;;;;;4851076;29;20541;-82
2022/05/12 09:28:25;;;;;;;2.43;2.10;;;27.40;42.90;;;;;;4852351;29;20472;-82
2022/05/12 09:30:51;;;;;;;4.70;2.43;;;28.50;39.70;;;;;;4866679;29;20476;-82
2022/05/12 09:33:33;;;;;;;3.10;2.27;;;30.10;36.50;;;;;;4855353;29;20445;-80
2022/05/12 09:36:08;;;;;;;3.30;2.77;;;29.60;37.40;;;;;;4867381;29;20453;-79
2022/05/12 09:38:57;;;;;;;5.27;2.60;;;30.00;37.00;;;;;;4854495;29;20449;-81
2022/05/12 09:41:41;;;;;;;2.60;2.40;;;28.90;37.90;;;;;;4861029;29;20946;-84
2022/05/12 09:44:24;;;;;;;3.23;2.10;;;28.40;38.60;;;;;;4866083;29;21054;-85
2022/05/12 09:46:59;;;;;;;4.00;3.00;;;28.70;38.40;;;;;;4853635;29;20463;-85
2022/05/12 09:49:33;;;;;;;3.07;2.47;;;29.30;37.20;;;;;;4852460;29;20505;-85
2022/05/12 09:52:28;;;;;;;4.57;2.30;;;28.70;38.00;;;;;;4854099;29;20941;-85
2022/05/12 09:55:18;;;;;;;2.60;2.40;;;28.10;38.40;;;;;;4851539;29;20595;-85
2022/05/12 09:57:55;;;;;;;5.30;2.93;;;26.50;41.00;;;;;;4854565;29;20470;-85
2022/05/12 10:00:34;;;;;;;5.00;2.10;;;25.30;42.90;;;;;;4881280;29;20457;-86
2022/05/12 10:09:17;;;;;;;3.90;2.60;;;23.20;46.80;;;;;;4859678;29;20469;-85
2022/05/12 10:12:16;;;;;;;2.93;2.50;;;24.30;45.90;;;;;;4857470;29;20453;-86
2022/05/12 10:14:57;;;;;;;5.50;2.97;;;26.40;43.20;;;;;;4887655;29;20495;-85
2022/05/12 10:17:35;;;;;;;5.50;2.53;;;26.90;41.30;;;;;;4855870;29;20449;-85
2022/05/12 10:20:11;;;;;;;3.17;2.17;;;26.50;41.60;;;;;;4854764;29;20477;-83
2022/05/12 10:22:44;;;;;;;4.67;2.40;;;26.20;42.20;;;;;;4855090;29;20560;-84
2022/05/12 10:25:24;;;;;;;7.07;2.40;;;25.70;42.60;;;;;;4856651;29;20513;-86
2022/05/12 10:28:04;;;;;;;3.40;2.57;;;25.00;44.00;;;;;;4867291;29;20471;-83
2022/05/12 10:30:54;;;;;;;5.00;3.07;;;24.40;44.20;;;;;;4865904;29;20483;-87
2022/05/12 10:33:44;;;;;;;3.97;2.20;;;24.00;44.50;;;;;;4869626;29;20532;-88
2022/05/12 10:36:35;;;;;;;2.90;2.07;;;23.70;45.30;;;;;;4874758;29;20465;-84
2022/05/12 10:39:19;;;;;;;6.27;2.30;;;24.30;45.30;;;;;;4868869;29;20452;-86
2022/05/12 10:42:20;;;;;;;6.40;2.40;;;24.90;45.00;;;;;;4884898;29;20467;-88
2022/05/12 10:45:24;;;;;;;2.70;2.00;;;25.90;43.70;;;;;;4882939;29;20469;-88
2022/05/12 10:48:09;;;;;;;5.27;2.30;;;26.40;41.30;;;;;;4860444;29;20473;-86
2022/05/12 10:50:39;;;;;;;6.10;2.23;;;26.10;40.70;;;;;;4858068;29;20520;-84
2022/05/12 10:53:32;;;;;;;5.37;1.97;;;26.20;40.20;;;;;;4869709;29;20461;-84
2022/05/12 10:56:26;;;;;;;8.50;2.73;;;26.70;40.00;;;;;;4870263;29;20483;-86
2022/05/12 10:59:13;;;;;;;2.90;1.90;;;27.80;38.80;;;;;;4855687;29;20572;-86
2022/05/12 11:02:02;;;;;;;3.07;2.53;;;28.50;37.00;;;;;;4860127;29;20472;-85
2022/05/12 11:04:41;;;;;;;2.60;2.10;;;28.80;36.30;;;;;;4854630;29;20480;-86
2022/05/12 11:07:38;;;;;;;3.30;1.87;;;27.10;38.50;;;;;;4854039;29;20556;-86
2022/05/12 11:10:18;;;;;;;3.20;2.17;;;25.80;41.00;;;;;;4885529;29;20512;-83
2022/05/12 11:12:49;;;;;;;2.60;1.97;;;25.10;42.60;;;;;;4867120;29;20457;-86
2022/05/12 11:15:23;;;;;;;4.33;1.80;;;24.80;43.20;;;;;;4870283;29;20489;-84
2022/05/12 11:18:04;;;;;;;2.33;2.13;;;24.50;42.80;;;;;;4853739;29;20465;-84
2022/05/12 11:20:42;;;;;;;2.10;2.00;;;24.80;43.30;;;;;;4860999;29;20513;-85
2022/05/12 11:23:44;;;;;;;4.57;2.27;;;24.60;43.80;;;;;;4866269;29;20453;-83
2022/05/12 11:26:17;;;;;;;5.53;2.50;;;24.40;44.20;;;;;;4857902;29;20560;-85
2022/05/12 11:32:00;;;;;;;3.47;2.00;;;24.70;43.90;;;;;;4859308;29;20459;-85
2022/05/12 11:34:28;;;;;;;2.20;1.80;;;25.10;42.90;;;;;;4858040;29;20504;-86
2022/05/12 11:36:56;;;;;;;2.80;2.33;;;25.50;42.70;;;;;;4863605;29;20569;-85
2022/05/12 11:39:30;;;;;;;2.10;1.73;;;26.00;41.80;;;;;;4862253;29;20465;-89
2022/05/12 11:42:17;;;;;;;3.50;1.80;;;26.30;41.50;;;;;;4864533;29;20479;-87
2022/05/12 11:44:56;;;;;;;2.87;1.93;;;26.00;41.30;;;;;;4874604;29;20506;-83
2022/05/12 11:47:43;;;;;;;2.70;2.07;;;25.70;41.80;;;;;;4865459;29;20520;-86
2022/05/12 11:50:18;;;;;;;5.17;1.87;;;25.70;41.70;;;;;;4858752;29;20848;-82
2022/05/12 11:53:03;;;;;;;2.77;1.63;;;26.40;41.00;;;;;;4887746;29;20457;-85
2022/05/12 11:55:52;;;;;;;4.40;2.20;;;26.90;40.10;;;;;;4870252;29;20492;-84
2022/05/12 11:58:32;;;;;;;3.83;1.63;;;26.90;39.90;;;;;;4857327;29;21016;-83
2022/05/12 12:01:03;;;;;;;2.97;1.77;;;26.50;39.90;;;;;;4858665;29;20442;-86
2022/05/12 12:03:30;;;;;;;3.67;1.50;;;26.10;40.00;;;;;;4868802;29;20461;-83
2022/05/12 12:06:01;;;;;;;3.33;1.80;;;25.70;40.60;;;;;;4856640;29;20462;-86
2022/05/12 12:08:31;;;;;;;1.73;1.47;;;25.60;40.40;;;;;;4854081;29;20548;-84
2022/05/12 12:11:13;;;;;;;2.57;1.77;;;26.30;39.90;;;;;;4869912;29;20498;-86
2022/05/12 12:13:44;;;;;;;6.00;2.60;;;26.30;39.50;;;;;;4856188;29;20495;-86
2022/05/12 12:16:19;;;;;;;2.13;1.80;;;26.00;39.70;;;;;;4854422;29;20487;-86
2022/05/12 12:18:51;;;;;;;4.17;2.10;;;25.90;40.10;;;;;;4854981;29;22727;-85
2022/05/12 12:21:34;;;;;;;3.30;1.83;;;25.90;40.10;;;;;;4855659;29;20465;-88
2022/05/12 12:24:18;;;;;;;2.83;2.07;;;26.40;39.90;;;;;;4855859;29;20493;-85
2022/05/12 12:26:58;;;;;;;3.70;2.17;;;26.20;39.80;;;;;;4856163;29;20468;-84
2022/05/12 12:29:47;;;;;;;4.40;1.83;;;26.60;39.90;;;;;;4857003;29;20541;-83
2022/05/12 12:32:28;;;;;;;3.83;2.00;;;27.30;38.70;;;;;;4858054;29;20505;-84
2022/05/12 12:35:05;;;;;;;3.80;2.20;;;26.30;39.40;;;;;;4891779;29;20597;-86
2022/05/12 12:37:45;;;;;;;3.27;2.43;;;25.90;40.20;;;;;;4881940;29;20449;-86
2022/05/12 12:40:43;;;;;;;4.10;2.50;;;26.00;40.00;;;;;;4864989;29;20471;-87
2022/05/12 12:43:26;;;;;;;2.93;2.10;;;26.20;40.80;;;;;;4880803;29;20534;-88
2022/05/12 12:45:53;;;;;;;5.80;2.03;;;26.70;40.00;;;;;;4882127;29;20541;-87
2022/05/12 12:48:32;;;;;;;2.70;2.27;;;26.70;39.90;;;;;;4865207;29;21357;-86
2022/05/12 12:50:59;;;;;;;4.33;2.60;;;26.20;40.20;;;;;;4863095;29;20469;-86
2022/05/12 12:56:31;;;;;;;3.00;2.50;;;25.80;41.30;;;;;;4865792;29;20560;-85
2022/05/12 12:59:04;;;;;;;2.60;2.40;;;26.10;41.20;;;;;;4862291;29;20558;-86
2022/05/12 13:01:48;;;;;;;4.20;2.07;;;25.90;41.10;;;;;;4870387;29;20565;-85
2022/05/12 13:04:19;;;;;;;3.47;2.30;;;26.10;41.30;;;;;;4854883;29;21037;-87
2022/05/12 13:06:55;;;;;;;4.73;2.77;;;26.30;40.80;;;;;;4855899;29;20484;-83
2022/05/12 13:09:28;;;;;;;4.30;2.30;;;26.10;40.60;;;;;;4857209;29;20489;-85
2022/05/12 13:12:28;;;;;;;4.33;2.20;;;25.60;41.60;;;;;;4856404;29;20467;-86
2022/05/12 13:14:58;;;;;;;3.30;3.00;;;25.40;42.20;;;;;;4855051;29;20598;-87
2022/05/12 13:17:27;;;;;;;5.23;3.07;;;25.50;42.20;;;;;;4855891;29;20437;-87
2022/05/12 13:19:59;;;;;;;4.03;3.33;;;25.90;41.90;;;;;;4854313;29;20462;-86
2022/05/12 13:22:50;;;;;;;5.70;3.23;;;25.90;41.30;;;;;;4858848;29;20541;-87
2022/05/12 13:25:26;;;;;;;4.53;2.70;;;25.80;41.70;;;;;;4870391;29;20485;-82
2022/05/12 13:27:53;;;;;;;4.07;2.30;;;25.90;41.70;;;;;;4852914;29;20480;-84
2022/05/12 13:30:27;;;;;;;2.77;2.50;;;26.40;41.30;;;;;;4850726;29;20489;-86
2022/05/12 13:33:09;;;;;;;6.00;3.20;;;26.60;40.40;;;;;;4853944;29;20480;-83
2022/05/12 13:35:39;;;;;;;3.00;2.70;;;26.50;40.00;;;;;;4855115;29;20489;-84
2022/05/12 13:38:15;;;;;;;5.80;2.80;;;26.20;40.50;;;;;;4856107;29;20464;-84